Terminal Aerodrome Forecast
Issued by NWS Charleston, WV

Current Version | Previous Version | Graphics & Text | Print | Product List | Glossary On
Versions: 1 2 3 4 5 6 7 8 9 10 11 12 13 14 15 16 17 18 19 20
306
FTUS41 KRLX 222323
TAFHTS
TAF
KHTS 222323Z 2300/2324 00000KT P6SM FEW050
     FM230800 00000KT 2SM BR SKC
     FM230900 00000KT 3/4SM BR SKC
     FM231100 00000KT 1/4SM FG BKN001
     FM231200 00000KT 1SM BR SCT001
     FM231300 00000KT P6SM SKC=

USA.gov is the U.S. government's official web portal to all federal, state and local government web resources and services.